Time;durP1;ratioP1;P1;durP2;ratioP2;P2;SDS_P1;SDS_P2;PMS_P1;PMS_P2;Temp;Humidity;BMP_temperature;BMP_pressure;BME280_temperature;BME280_humidity;BME280_pressure;Samples;Min_cycle;Max_cycle;Signal;HPM_P1;HPM_P2
2023/07/30 00:00:13;;;;;;;2.93;2.53;;;22.80;45.90;;;;;;10444427;28;20233;-76
2023/07/30 00:05:16;;;;;;;2.43;2.27;;;22.70;46.10;;;;;;10443897;28;20229;-75
2023/07/30 00:10:21;;;;;;;2.33;2.13;;;22.70;45.80;;;;;;10445177;28;20235;-75
2023/07/30 00:15:27;;;;;;;2.33;2.13;;;22.70;46.00;;;;;;10451039;28;20232;-76
2023/07/30 00:20:30;;;;;;;2.40;2.20;;;22.60;46.20;;;;;;10449098;28;20225;-76
2023/07/30 00:25:33;;;;;;;2.20;2.10;;;22.50;46.00;;;;;;10450483;28;20316;-75
2023/07/30 00:30:38;;;;;;;2.23;2.13;;;22.50;46.00;;;;;;10448085;28;20657;-76
2023/07/30 00:35:41;;;;;;;2.17;2.07;;;22.50;47.00;;;;;;10459138;28;21030;-75
2023/07/30 00:40:44;;;;;;;2.20;2.10;;;22.40;46.30;;;;;;10448530;28;20838;-75
2023/07/30 00:45:50;;;;;;;2.00;1.90;;;22.30;46.30;;;;;;10455983;28;20239;-76
2023/07/30 00:50:53;;;;;;;2.53;2.33;;;22.30;46.60;;;;;;10446727;28;20674;-75
2023/07/30 00:55:57;;;;;;;2.03;1.93;;;22.30;46.60;;;;;;10445603;28;20259;-76
2023/07/30 01:01:02;;;;;;;2.20;2.00;;;22.20;46.60;;;;;;10444713;28;20235;-76
2023/07/30 01:06:05;;;;;;;2.20;2.00;;;22.20;47.00;;;;;;10494296;28;20722;-76
2023/07/30 01:11:09;;;;;;;2.60;2.40;;;22.20;46.80;;;;;;10487287;28;20259;-75
2023/07/30 01:16:14;;;;;;;2.47;2.37;;;22.30;46.80;;;;;;10483646;28;20707;-75
2023/07/30 01:21:19;;;;;;;2.50;2.30;;;22.20;47.00;;;;;;10481498;28;20221;-75
2023/07/30 01:26:28;;;;;;;2.30;2.20;;;22.20;47.00;;;;;;10489802;28;20267;-75
2023/07/30 01:31:33;;;;;;;2.30;2.10;;;22.30;47.40;;;;;;10478515;28;20593;-75
2023/07/30 01:36:39;;;;;;;2.57;2.37;;;22.30;46.90;;;;;;10487580;28;20327;-76
2023/07/30 01:41:42;;;;;;;2.13;2.03;;;22.20;47.30;;;;;;10487722;28;20232;-75
2023/07/30 01:46:46;;;;;;;2.50;2.30;;;22.20;47.00;;;;;;10491091;28;20747;-75
2023/07/30 01:51:50;;;;;;;2.63;2.10;;;22.10;47.20;;;;;;10476813;28;20728;-76
2023/07/30 01:56:54;;;;;;;2.00;1.90;;;22.10;47.70;;;;;;10483964;28;20655;-75
2023/07/30 02:01:57;;;;;;;2.23;2.10;;;22.10;47.30;;;;;;10477549;28;20813;-75
2023/07/30 02:07:02;;;;;;;2.70;2.50;;;22.10;47.30;;;;;;10481138;28;20224;-75
2023/07/30 02:12:06;;;;;;;4.00;2.63;;;22.10;48.00;;;;;;10475144;28;20247;-76
2023/07/30 02:17:10;;;;;;;2.37;2.17;;;22.10;47.70;;;;;;10508586;28;20255;-76
2023/07/30 02:22:14;;;;;;;2.60;2.07;;;22.00;47.40;;;;;;10531021;28;20228;-76
2023/07/30 02:27:17;;;;;;;1.90;1.80;;;22.00;48.00;;;;;;10509675;28;20228;-76
2023/07/30 02:32:20;;;;;;;1.60;1.50;;;21.90;47.20;;;;;;10504881;28;20220;-76
2023/07/30 02:37:25;;;;;;;1.50;1.40;;;21.80;47.20;;;;;;10503279;28;20259;-76
2023/07/30 02:42:28;;;;;;;1.43;1.33;;;21.70;47.70;;;;;;10488884;28;20232;-76
2023/07/30 02:47:31;;;;;;;1.50;1.40;;;21.70;47.20;;;;;;10487081;28;20244;-76
2023/07/30 02:52:36;;;;;;;1.53;1.17;;;21.50;47.20;;;;;;10495160;28;20656;-76
2023/07/30 02:57:39;;;;;;;1.10;1.10;;;21.40;47.50;;;;;;10486376;28;20228;-75
2023/07/30 03:02:42;;;;;;;1.30;1.00;;;21.40;47.40;;;;;;10486625;28;20236;-75
2023/07/30 03:07:47;;;;;;;1.27;1.17;;;21.30;47.30;;;;;;10492829;28;20240;-76
2023/07/30 03:12:50;;;;;;;2.80;1.40;;;21.20;47.60;;;;;;10486329;28;20577;-76
2023/07/30 03:17:53;;;;;;;1.30;1.20;;;21.20;47.40;;;;;;10496262;28;20224;-76
2023/07/30 03:22:58;;;;;;;1.30;1.20;;;21.10;47.40;;;;;;10491669;28;20780;-76
2023/07/30 03:28:01;;;;;;;1.57;1.47;;;21.20;47.70;;;;;;10486861;28;20224;-76
2023/07/30 03:33:04;;;;;;;2.20;1.40;;;21.10;47.40;;;;;;10494779;28;20224;-76
2023/07/30 03:38:09;;;;;;;1.83;1.73;;;21.00;47.50;;;;;;10485834;28;20827;-76
2023/07/30 03:43:12;;;;;;;1.57;1.47;;;21.00;48.10;;;;;;10485679;28;20234;-76
2023/07/30 03:48:15;;;;;;;4.07;1.57;;;20.90;47.80;;;;;;10486072;28;20232;-76
2023/07/30 03:53:20;;;;;;;1.80;1.70;;;20.80;47.80;;;;;;10493051;28;20230;-76
2023/07/30 03:58:23;;;;;;;2.67;1.47;;;20.80;48.20;;;;;;10496372;28;20922;-76
2023/07/30 04:03:26;;;;;;;1.70;1.60;;;20.70;48.10;;;;;;10487787;28;20230;-76
2023/07/30 04:08:31;;;;;;;2.30;1.70;;;20.70;48.10;;;;;;10484836;28;20743;-77
2023/07/30 04:13:34;;;;;;;1.73;1.30;;;20.70;48.70;;;;;;10485881;28;20224;-77
2023/07/30 04:18:37;;;;;;;3.40;1.57;;;20.70;48.40;;;;;;10486216;28;20273;-77
2023/07/30 04:23:42;;;;;;;3.37;1.77;;;20.70;48.50;;;;;;10507736;28;20307;-77
2023/07/30 04:28:45;;;;;;;2.10;1.90;;;20.80;49.10;;;;;;10535223;28;20235;-77
2023/07/30 04:33:49;;;;;;;1.97;1.70;;;20.80;48.60;;;;;;10500549;28;20230;-76
2023/07/30 04:38:53;;;;;;;3.07;1.97;;;20.70;48.70;;;;;;10500802;28;20256;-77
2023/07/30 04:43:57;;;;;;;1.90;1.70;;;20.70;49.40;;;;;;10494546;28;20311;-77
2023/07/30 04:49:04;;;;;;;1.83;1.73;;;20.70;49.40;;;;;;10525543;28;20238;-76
2023/07/30 04:54:09;;;;;;;2.37;2.27;;;20.70;49.60;;;;;;10505071;28;20320;-76
2023/07/30 04:59:12;;;;;;;2.10;2.00;;;20.70;49.40;;;;;;10491649;28;20224;-77
2023/07/30 05:04:15;;;;;;;2.47;2.27;;;20.70;49.40;;;;;;10513454;28;20242;-76
2023/07/30 05:09:19;;;;;;;1.90;1.80;;;20.70;49.40;;;;;;10533472;28;20231;-76
2023/07/30 05:14:23;;;;;;;2.00;1.90;;;20.70;49.80;;;;;;10533556;28;20228;-76
2023/07/30 05:19:28;;;;;;;2.10;1.90;;;20.70;49.40;;;;;;10501693;28;20232;-77
2023/07/30 05:24:32;;;;;;;2.27;1.90;;;20.70;50.20;;;;;;10491478;28;20224;-76
2023/07/30 05:29:36;;;;;;;2.40;1.83;;;20.70;50.20;;;;;;10491560;28;20232;-77
2023/07/30 05:34:39;;;;;;;1.87;1.77;;;20.80;49.70;;;;;;10490401;28;20226;-76
2023/07/30 05:39:43;;;;;;;2.13;1.93;;;20.80;49.80;;;;;;10500069;28;20228;-77
2023/07/30 05:44:47;;;;;;;1.93;1.70;;;20.80;50.60;;;;;;10506848;28;20342;-77
2023/07/30 05:49:50;;;;;;;2.00;1.90;;;20.90;50.20;;;;;;10489924;28;20323;-76
2023/07/30 05:54:54;;;;;;;2.00;1.90;;;20.90;50.30;;;;;;10490669;28;20220;-76
2023/07/30 05:59:59;;;;;;;2.63;2.00;;;21.00;51.50;;;;;;10489234;28;20224;-75
2023/07/30 06:05:02;;;;;;;2.50;2.40;;;21.10;51.50;;;;;;10489658;28;20301;-76
2023/07/30 06:10:07;;;;;;;3.23;2.20;;;21.20;51.30;;;;;;10489053;28;20228;-76
2023/07/30 06:15:10;;;;;;;2.60;2.40;;;21.20;52.20;;;;;;10489347;28;20232;-76
2023/07/30 06:20:14;;;;;;;2.40;2.27;;;21.30;51.30;;;;;;10489205;28;20248;-76
2023/07/30 06:25:18;;;;;;;2.67;2.47;;;21.40;51.20;;;;;;10519097;28;20243;-76
2023/07/30 06:30:21;;;;;;;3.30;2.30;;;21.50;51.70;;;;;;10500493;28;20381;-77
2023/07/30 06:35:24;;;;;;;2.57;2.47;;;21.60;51.00;;;;;;10488714;28;20228;-76
2023/07/30 06:40:29;;;;;;;2.63;2.43;;;21.60;51.30;;;;;;10488129;28;20224;-76
2023/07/30 06:45:32;;;;;;;2.67;2.37;;;21.70;52.40;;;;;;10488280;28;20808;-77
2023/07/30 06:50:35;;;;;;;2.60;2.40;;;21.80;52.10;;;;;;10488399;28;20220;-75
2023/07/30 06:55:40;;;;;;;2.77;2.57;;;21.90;52.10;;;;;;10487429;28;20232;-76
2023/07/30 07:00:43;;;;;;;2.60;2.40;;;22.00;52.80;;;;;;10487841;28;20603;-77
2023/07/30 07:05:54;;;;;;;3.63;2.30;;;22.10;52.30;;;;;;10487518;28;20293;-76
2023/07/30 07:10:58;;;;;;;2.30;2.10;;;22.20;52.30;;;;;;10515334;28;20223;-76
2023/07/30 07:16:01;;;;;;;2.70;2.50;;;22.40;52.20;;;;;;10529246;28;20636;-76
2023/07/30 07:21:04;;;;;;;2.80;2.60;;;22.50;50.90;;;;;;10499648;28;20251;-76
2023/07/30 07:26:09;;;;;;;4.50;2.73;;;22.70;51.10;;;;;;10486489;28;20232;-77
2023/07/30 07:31:12;;;;;;;2.30;2.20;;;22.80;51.20;;;;;;10491525;28;20223;-77
2023/07/30 07:36:15;;;;;;;3.00;2.50;;;22.90;51.00;;;;;;10516157;28;20233;-77
2023/07/30 07:41:20;;;;;;;2.50;2.30;;;22.90;51.30;;;;;;10529459;28;20280;-77
2023/07/30 07:46:24;;;;;;;2.50;2.30;;;23.00;51.40;;;;;;10535214;28;20239;-78
2023/07/30 07:51:28;;;;;;;2.80;2.60;;;23.10;51.00;;;;;;10504969;28;20692;-78
2023/07/30 07:56:33;;;;;;;2.47;2.30;;;23.20;51.40;;;;;;10509032;28;20246;-77
2023/07/30 08:01:36;;;;;;;2.50;2.30;;;23.30;51.20;;;;;;10522535;28;20311;-77
2023/07/30 08:06:40;;;;;;;2.20;2.10;;;23.50;50.40;;;;;;10510179;28;20319;-78
2023/07/30 08:11:44;;;;;;;2.43;2.30;;;23.50;50.30;;;;;;10504817;28;20311;-77
2023/07/30 08:16:48;;;;;;;2.47;2.37;;;23.60;50.30;;;;;;10494648;28;20252;-78
2023/07/30 08:21:51;;;;;;;2.60;2.40;;;23.70;49.90;;;;;;10495167;28;20598;-77
2023/07/30 08:26:55;;;;;;;2.10;2.00;;;23.80;49.60;;;;;;10507795;28;20712;-78
2023/07/30 08:31:58;;;;;;;3.10;2.90;;;23.90;50.00;;;;;;10500343;28;20279;-77
2023/07/30 08:37:02;;;;;;;1.93;1.83;;;24.00;49.70;;;;;;10510897;28;20235;-77
2023/07/30 08:42:07;;;;;;;2.10;2.00;;;24.00;48.90;;;;;;10503654;28;20251;-77
2023/07/30 08:47:14;;;;;;;1.97;1.87;;;24.10;48.40;;;;;;10511302;28;20255;-77
2023/07/30 08:52:21;;;;;;;1.90;1.80;;;24.20;48.80;;;;;;10515129;28;20312;-78
2023/07/30 08:57:28;;;;;;;2.70;1.80;;;24.30;49.20;;;;;;10513062;28;20232;-78
2023/07/30 09:02:38;;;;;;;1.83;1.73;;;24.50;47.80;;;;;;10498261;28;20232;-78
2023/07/30 09:07:41;;;;;;;2.20;2.10;;;24.70;47.30;;;;;;10496905;28;20232;-78
2023/07/30 09:12:46;;;;;;;2.00;1.90;;;24.80;48.40;;;;;;10498976;28;20659;-78
2023/07/30 09:17:56;;;;;;;2.10;1.90;;;25.00;47.60;;;;;;10493212;28;20238;-77
2023/07/30 09:22:59;;;;;;;2.03;1.93;;;25.20;46.70;;;;;;10506042;28;20267;-78
2023/07/30 09:28:07;;;;;;;2.13;2.00;;;25.30;47.10;;;;;;10499939;28;20232;-78
2023/07/30 09:33:10;;;;;;;2.33;2.10;;;25.40;46.30;;;;;;10499359;28;20232;-78
2023/07/30 09:38:14;;;;;;;2.47;2.20;;;25.40;46.40;;;;;;10508035;28;20228;-78
2023/07/30 09:43:19;;;;;;;2.37;2.27;;;25.30;46.30;;;;;;10518761;28;20230;-78
2023/07/30 09:48:22;;;;;;;2.17;2.07;;;25.40;45.60;;;;;;10502414;28;20236;-77
2023/07/30 09:53:26;;;;;;;2.20;2.00;;;25.40;45.60;;;;;;10499065;28;20328;-78
2023/07/30 09:58:30;;;;;;;2.17;2.07;;;25.40;45.20;;;;;;10498847;28;20236;-78
2023/07/30 10:03:36;;;;;;;1.90;1.80;;;25.40;45.80;;;;;;10503114;28;20234;-77
2023/07/30 10:08:42;;;;;;;1.80;1.60;;;25.40;46.10;;;;;;10493508;28;20307;-78
2023/07/30 10:13:48;;;;;;;1.87;1.77;;;25.40;45.00;;;;;;10494148;28;20306;-77
2023/07/30 10:18:57;;;;;;;1.70;1.60;;;25.40;45.00;;;;;;10493554;28;20312;-78
2023/07/30 10:24:02;;;;;;;1.87;1.77;;;25.40;45.60;;;;;;10525421;28;20243;-77
2023/07/30 10:29:17;;;;;;;2.37;2.07;;;25.50;45.80;;;;;;10502297;28;20600;-77
2023/07/30 10:34:21;;;;;;;2.00;1.90;;;25.70;42.20;;;;;;10490968;28;20676;-77
2023/07/30 10:39:28;;;;;;;2.33;1.97;;;25.80;45.20;;;;;;10492545;28;20597;-77
2023/07/30 10:44:34;;;;;;;2.20;2.10;;;26.10;43.60;;;;;;10497712;28;20315;-78
2023/07/30 10:49:40;;;;;;;2.00;1.40;;;26.20;41.90;;;;;;10492707;28;20246;-77
2023/07/30 10:54:44;;;;;;;1.30;1.20;;;26.10;38.40;;;;;;10496872;28;20231;-78
2023/07/30 10:59:49;;;;;;;1.63;1.33;;;25.30;39.10;;;;;;10492075;28;20239;-77
2023/07/30 11:04:52;;;;;;;1.20;1.10;;;24.60;40.50;;;;;;10489145;28;20315;-77
2023/07/30 11:10:02;;;;;;;1.13;1.10;;;24.10;41.70;;;;;;10520485;28;20234;-78
2023/07/30 11:15:08;;;;;;;1.47;1.37;;;23.80;42.90;;;;;;10493849;28;20252;-77
2023/07/30 11:20:23;;;;;;;1.20;1.20;;;23.60;43.50;;;;;;10494936;28;20319;-77
2023/07/30 11:25:26;;;;;;;1.53;1.43;;;23.50;44.50;;;;;;10488952;28;20232;-77
2023/07/30 11:30:33;;;;;;;3.33;1.60;;;23.40;44.90;;;;;;10489195;28;20720;-77
2023/07/30 11:35:39;;;;;;;2.87;1.33;;;23.50;45.40;;;;;;10488383;28;20263;-77
2023/07/30 11:40:42;;;;;;;1.47;1.37;;;23.50;46.20;;;;;;10513461;28;20728;-75
2023/07/30 11:45:47;;;;;;;2.73;1.20;;;23.50;45.80;;;;;;10529965;28;20232;-76
2023/07/30 11:50:52;;;;;;;2.30;1.30;;;23.60;45.90;;;;;;10531413;28;20219;-76
2023/07/30 11:55:55;;;;;;;1.60;1.50;;;23.60;46.30;;;;;;10531186;28;20247;-76
2023/07/30 12:01:00;;;;;;;1.57;1.47;;;23.70;46.10;;;;;;10532318;28;20226;-77
2023/07/30 12:06:06;;;;;;;1.53;1.43;;;23.80;46.60;;;;;;10522988;28;20312;-77
2023/07/30 12:11:10;;;;;;;1.47;1.37;;;24.00;46.30;;;;;;10499762;28;20784;-77
2023/07/30 12:16:17;;;;;;;1.60;1.50;;;24.10;46.50;;;;;;10517003;28;20263;-76
2023/07/30 12:21:24;;;;;;;2.33;1.40;;;24.20;45.30;;;;;;10469235;28;20239;-77
2023/07/30 12:26:27;;;;;;;1.23;1.23;;;24.30;45.80;;;;;;10448621;28;20232;-77
2023/07/30 12:31:32;;;;;;;1.40;1.30;;;24.50;46.50;;;;;;10459468;28;20239;-78
2023/07/30 12:36:35;;;;;;;1.60;1.50;;;24.70;44.70;;;;;;10508733;28;20232;-77
2023/07/30 12:41:38;;;;;;;1.80;1.70;;;24.80;43.70;;;;;;10490454;28;20599;-77
2023/07/30 12:46:43;;;;;;;2.17;1.80;;;24.80;43.20;;;;;;10497463;28;20250;-74
2023/07/30 12:51:46;;;;;;;2.50;1.77;;;24.80;42.50;;;;;;10495992;28;20307;-77
2023/07/30 12:56:50;;;;;;;1.70;1.60;;;24.80;42.60;;;;;;10494748;28;20787;-76
2023/07/30 13:01:54;;;;;;;1.60;1.50;;;24.70;41.00;;;;;;10496254;28;20238;-77
2023/07/30 13:06:57;;;;;;;1.50;1.40;;;24.60;40.50;;;;;;10495997;28;20224;-77
2023/07/30 13:12:15;;;;;;;1.40;1.40;;;24.40;41.00;;;;;;10496295;28;20224;-77
2023/07/30 13:17:19;;;;;;;1.60;1.50;;;24.30;40.30;;;;;;10495844;28;20228;-76
2023/07/30 13:22:23;;;;;;;1.67;1.57;;;24.30;40.30;;;;;;10495293;28;20220;-77
2023/07/30 13:27:26;;;;;;;1.70;1.40;;;24.30;40.70;;;;;;10494528;28;20693;-77
2023/07/30 13:32:30;;;;;;;1.60;1.50;;;24.30;41.30;;;;;;10494591;28;20311;-77
2023/07/30 13:37:33;;;;;;;1.87;1.70;;;24.40;40.40;;;;;;10494325;28;20236;-77
2023/07/30 13:42:38;;;;;;;1.80;1.70;;;24.40;40.40;;;;;;10492397;28;20221;-77
2023/07/30 13:47:43;;;;;;;2.33;1.67;;;24.50;40.50;;;;;;10491241;28;20240;-77
2023/07/30 13:52:47;;;;;;;1.90;1.80;;;24.60;40.50;;;;;;10492084;28;20720;-77
2023/07/30 13:57:50;;;;;;;1.73;1.63;;;24.70;40.40;;;;;;10508288;28;20285;-77
2023/07/30 14:02:54;;;;;;;2.03;1.83;;;24.80;39.70;;;;;;10491574;28;20314;-77
2023/07/30 14:07:58;;;;;;;2.00;1.90;;;24.90;38.60;;;;;;10498772;28;20228;-77
2023/07/30 14:13:03;;;;;;;3.07;1.83;;;25.00;39.90;;;;;;10489341;28;20313;-77
2023/07/30 14:18:09;;;;;;;1.80;1.70;;;25.10;38.40;;;;;;10489526;28;20731;-77
2023/07/30 14:23:16;;;;;;;1.80;1.70;;;25.20;37.50;;;;;;10488993;28;20232;-77
2023/07/30 14:28:19;;;;;;;2.00;1.90;;;25.30;38.50;;;;;;10489810;28;20262;-77
2023/07/30 14:33:24;;;;;;;1.90;1.80;;;25.40;38.40;;;;;;10490040;28;20682;-77
2023/07/30 14:38:31;;;;;;;1.97;1.87;;;25.40;37.50;;;;;;10489952;28;20704;-77
2023/07/30 14:43:42;;;;;;;2.03;1.93;;;25.40;37.00;;;;;;10488889;28;20232;-77
2023/07/30 14:48:53;;;;;;;1.90;1.80;;;25.40;37.00;;;;;;10489851;28;20230;-77
2023/07/30 14:53:56;;;;;;;2.10;1.87;;;25.40;35.70;;;;;;10488559;28;20885;-78
2023/07/30 14:58:59;;;;;;;2.00;1.90;;;25.50;37.10;;;;;;10495003;28;20227;-78
2023/07/30 15:04:04;;;;;;;2.10;2.00;;;25.50;36.90;;;;;;10498451;28;20319;-77
2023/07/30 15:09:07;;;;;;;1.97;1.80;;;25.60;36.60;;;;;;10490785;28;20228;-78
2023/07/30 15:14:10;;;;;;;1.90;1.80;;;25.70;37.20;;;;;;10495320;28;20230;-78
2023/07/30 15:19:15;;;;;;;2.10;1.90;;;25.90;36.80;;;;;;10491535;28;20322;-78
2023/07/30 15:24:18;;;;;;;2.40;2.20;;;25.90;35.50;;;;;;10492030;28;20226;-78
2023/07/30 15:29:21;;;;;;;2.07;1.90;;;25.90;34.90;;;;;;10498908;28;20414;-78
2023/07/30 15:34:26;;;;;;;1.97;1.73;;;26.00;34.80;;;;;;10491621;28;21091;-77
2023/07/30 15:39:30;;;;;;;2.30;2.10;;;26.00;34.10;;;;;;10490902;28;20247;-78
2023/07/30 15:44:34;;;;;;;2.00;1.90;;;26.00;34.90;;;;;;10475884;28;20291;-77
2023/07/30 15:49:39;;;;;;;1.80;1.70;;;26.00;34.60;;;;;;10488835;28;20238;-78
2023/07/30 15:54:42;;;;;;;2.07;1.87;;;26.10;33.40;;;;;;10504284;28;20585;-78
2023/07/30 15:59:46;;;;;;;1.93;1.83;;;26.10;33.60;;;;;;10486202;28;20732;-78
2023/07/30 16:04:51;;;;;;;2.00;1.90;;;26.10;33.60;;;;;;10488462;28;20252;-77
2023/07/30 16:09:54;;;;;;;3.40;1.90;;;26.10;32.70;;;;;;10499606;28;20262;-78
2023/07/30 16:14:57;;;;;;;2.33;2.13;;;26.10;33.90;;;;;;10498819;28;20223;-78
2023/07/30 16:20:02;;;;;;;1.90;1.80;;;26.10;33.00;;;;;;10499024;28;20795;-78
2023/07/30 16:25:06;;;;;;;1.90;1.80;;;26.10;32.70;;;;;;10497270;28;20641;-79
2023/07/30 16:30:11;;;;;;;1.93;1.70;;;26.00;32.50;;;;;;10527352;28;20240;-78
2023/07/30 16:35:16;;;;;;;2.93;1.80;;;26.00;32.60;;;;;;10494340;28;20319;-78
2023/07/30 16:40:19;;;;;;;2.00;1.80;;;26.00;33.10;;;;;;10499493;28;20247;-79
2023/07/30 16:45:22;;;;;;;1.70;1.60;;;25.90;32.90;;;;;;10499416;28;20235;-78
2023/07/30 16:50:27;;;;;;;1.73;1.63;;;25.90;32.90;;;;;;10500710;28;20232;-78
2023/07/30 16:55:32;;;;;;;2.43;1.90;;;25.90;31.20;;;;;;10508143;28;20226;-78
2023/07/30 17:00:35;;;;;;;1.93;1.83;;;25.90;31.90;;;;;;10495827;28;20216;-78
2023/07/30 17:05:39;;;;;;;2.43;1.90;;;25.90;32.30;;;;;;10496348;28;20224;-78
2023/07/30 17:10:43;;;;;;;1.97;1.83;;;25.90;31.40;;;;;;10486889;28;20293;-78
2023/07/30 17:15:46;;;;;;;2.17;1.80;;;25.90;32.00;;;;;;10496805;28;20228;-78
2023/07/30 17:20:57;;;;;;;2.00;1.90;;;25.80;31.60;;;;;;10496421;28;20248;-78
2023/07/30 17:26:03;;;;;;;1.70;1.60;;;25.80;29.30;;;;;;10493452;28;20709;-77
2023/07/30 17:31:10;;;;;;;1.80;1.70;;;25.80;30.90;;;;;;10495556;28;20666;-78
2023/07/30 17:36:15;;;;;;;1.80;1.70;;;25.80;31.60;;;;;;10494716;28;20841;-78
2023/07/30 17:41:18;;;;;;;2.27;1.90;;;25.80;31.10;;;;;;10494766;28;20259;-78
2023/07/30 17:46:22;;;;;;;1.93;1.80;;;25.80;31.40;;;;;;10491120;28;24349;-77
2023/07/30 17:51:27;;;;;;;2.00;1.80;;;25.80;31.30;;;;;;10489891;28;20235;-78
2023/07/30 17:56:30;;;;;;;2.00;1.80;;;25.80;30.20;;;;;;10489164;28;20383;-78
2023/07/30 18:01:35;;;;;;;1.80;1.70;;;25.70;30.40;;;;;;10493389;28;20663;-77
2023/07/30 18:06:40;;;;;;;2.93;1.80;;;25.60;29.70;;;;;;10487948;28;20259;-78
2023/07/30 18:11:44;;;;;;;1.83;1.70;;;25.40;30.50;;;;;;10490135;28;20228;-78
2023/07/30 18:16:47;;;;;;;2.97;1.73;;;25.20;30.40;;;;;;10493083;28;20717;-79
2023/07/30 18:21:54;;;;;;;1.90;1.53;;;25.10;30.50;;;;;;10493943;28;20220;-78
2023/07/30 18:26:57;;;;;;;2.10;1.93;;;24.90;30.00;;;;;;10493367;28;20410;-77
2023/07/30 18:32:06;;;;;;;2.77;1.60;;;24.80;30.60;;;;;;10501260;28;20252;-78
2023/07/30 18:37:12;;;;;;;1.90;1.80;;;24.70;30.00;;;;;;10487317;28;20224;-77
2023/07/30 18:42:15;;;;;;;1.80;1.63;;;24.60;30.40;;;;;;10484703;28;20227;-77
2023/07/30 18:47:19;;;;;;;2.80;1.60;;;24.50;30.80;;;;;;10487297;28;20231;-77
2023/07/30 18:52:29;;;;;;;3.43;1.57;;;24.50;30.60;;;;;;10491662;28;20232;-77
2023/07/30 18:57:41;;;;;;;3.93;1.60;;;24.30;30.10;;;;;;10488391;28;20596;-78
2023/07/30 19:02:44;;;;;;;1.43;1.33;;;24.30;29.70;;;;;;10490690;28;20336;-78
2023/07/30 19:07:49;;;;;;;1.47;1.37;;;24.20;30.60;;;;;;10492307;28;20231;-77
2023/07/30 19:12:52;;;;;;;1.60;1.50;;;24.10;30.50;;;;;;10491286;28;20243;-78
2023/07/30 19:17:59;;;;;;;3.10;1.40;;;24.10;30.90;;;;;;10487610;28;20728;-78
2023/07/30 19:23:04;;;;;;;1.60;1.50;;;24.10;30.80;;;;;;10442453;28;20213;-77
2023/07/30 19:28:08;;;;;;;1.73;1.60;;;24.10;30.20;;;;;;10443422;28;20316;-77
2023/07/30 19:33:11;;;;;;;1.73;1.30;;;24.00;30.40;;;;;;10438586;28;20233;-77
2023/07/30 19:38:17;;;;;;;2.30;1.50;;;23.90;30.50;;;;;;10458510;28;20326;-77
2023/07/30 19:43:22;;;;;;;2.07;1.43;;;23.90;30.50;;;;;;10456492;28;20232;-76
2023/07/30 19:48:25;;;;;;;2.07;1.23;;;23.80;30.30;;;;;;10480140;28;20860;-77
2023/07/30 19:53:31;;;;;;;1.97;1.40;;;23.80;30.60;;;;;;10484863;28;20332;-77
2023/07/30 19:58:35;;;;;;;1.40;1.30;;;23.70;30.40;;;;;;10496792;28;20255;-77
2023/07/30 20:03:38;;;;;;;1.30;1.20;;;23.70;30.30;;;;;;10493186;28;20319;-77
2023/07/30 20:08:44;;;;;;;1.73;1.53;;;23.60;30.40;;;;;;10500177;28;20695;-77
2023/07/30 20:13:48;;;;;;;2.40;1.40;;;23.50;29.70;;;;;;10493144;28;20299;-76
2023/07/30 20:18:51;;;;;;;1.50;1.37;;;23.50;30.10;;;;;;10492339;28;20225;-76
2023/07/30 20:23:55;;;;;;;1.50;1.37;;;23.40;30.10;;;;;;10476679;28;20227;-77
2023/07/30 20:29:00;;;;;;;2.47;1.73;;;23.30;29.90;;;;;;10487983;28;20228;-77
2023/07/30 20:34:05;;;;;;;1.70;1.30;;;23.20;30.10;;;;;;10487362;28;20290;-76
2023/07/30 20:39:10;;;;;;;2.07;1.30;;;23.20;30.00;;;;;;10491520;28;20259;-76
2023/07/30 20:44:13;;;;;;;1.90;1.20;;;23.10;29.90;;;;;;10491599;28;20230;-78
2023/07/30 20:49:17;;;;;;;2.57;1.23;;;23.00;30.20;;;;;;10488089;28;20238;-77
2023/07/30 20:54:21;;;;;;;1.97;1.50;;;22.90;30.50;;;;;;10494345;28;20226;-77
2023/07/30 20:59:24;;;;;;;3.43;1.50;;;22.80;30.10;;;;;;10492872;28;20274;-77
2023/07/30 21:04:27;;;;;;;1.77;1.60;;;22.60;30.40;;;;;;10485255;28;20224;-77
2023/07/30 21:09:32;;;;;;;3.17;1.50;;;22.50;30.50;;;;;;10513388;28;20254;-77
2023/07/30 21:14:35;;;;;;;3.73;1.80;;;22.40;30.50;;;;;;10514264;28;20236;-77
2023/07/30 21:19:38;;;;;;;2.10;1.40;;;22.20;30.80;;;;;;10495678;28;20238;-77
2023/07/30 21:24:43;;;;;;;2.10;1.50;;;22.10;31.00;;;;;;10492842;28;20700;-77
2023/07/30 21:29:49;;;;;;;3.03;1.50;;;22.10;31.10;;;;;;10492751;28;20315;-77
2023/07/30 21:34:52;;;;;;;1.60;1.50;;;22.00;31.10;;;;;;10493296;28;20224;-77
2023/07/30 21:40:00;;;;;;;2.07;1.37;;;21.90;31.10;;;;;;10482776;28;20256;-77
2023/07/30 21:45:03;;;;;;;2.00;1.30;;;21.80;31.10;;;;;;10492777;28;20707;-77
2023/07/30 21:50:07;;;;;;;1.83;1.43;;;21.70;31.40;;;;;;10492233;28;20655;-77
2023/07/30 21:55:12;;;;;;;3.00;1.37;;;21.60;31.60;;;;;;10492461;28;20275;-77
2023/07/30 22:00:15;;;;;;;2.87;1.43;;;21.60;31.70;;;;;;10483369;28;20307;-77
2023/07/30 22:05:19;;;;;;;2.47;1.50;;;21.50;31.80;;;;;;10491767;28;20240;-77
2023/07/30 22:10:24;;;;;;;1.47;1.37;;;21.40;32.00;;;;;;10491386;28;20314;-77
2023/07/30 22:15:27;;;;;;;2.23;1.40;;;21.40;32.20;;;;;;10495224;28;20227;-77
2023/07/30 22:20:31;;;;;;;1.30;1.20;;;21.40;32.40;;;;;;10507224;28;20216;-77
2023/07/30 22:25:36;;;;;;;2.53;1.43;;;21.40;32.80;;;;;;10518942;28;20316;-77
2023/07/30 22:30:41;;;;;;;2.47;1.50;;;21.50;32.40;;;;;;10490728;28;20228;-77
2023/07/30 22:35:44;;;;;;;1.77;1.40;;;21.50;32.20;;;;;;10514869;28;20235;-77
2023/07/30 22:40:49;;;;;;;1.83;1.60;;;21.40;32.20;;;;;;10493139;28;20234;-77
2023/07/30 22:45:52;;;;;;;2.37;1.70;;;21.40;32.10;;;;;;10492279;28;20319;-77
2023/07/30 22:50:55;;;;;;;2.40;1.57;;;21.30;33.00;;;;;;10531897;28;20235;-77
2023/07/30 22:56:00;;;;;;;2.40;1.60;;;21.20;32.30;;;;;;10499018;28;20277;-77
2023/07/30 23:01:03;;;;;;;2.13;1.60;;;21.20;32.50;;;;;;10483019;28;20224;-76
2023/07/30 23:06:06;;;;;;;2.47;1.50;;;21.10;32.30;;;;;;10489811;28;20236;-77
2023/07/30 23:11:11;;;;;;;2.73;1.43;;;20.90;32.30;;;;;;10489569;28;20323;-77
2023/07/30 23:16:14;;;;;;;3.10;1.50;;;20.80;32.50;;;;;;10488887;28;20307;-77
2023/07/30 23:21:17;;;;;;;1.80;1.33;;;20.70;32.60;;;;;;10479871;28;20221;-77
2023/07/30 23:26:22;;;;;;;1.80;1.47;;;20.60;32.70;;;;;;10488969;28;20278;-77
2023/07/30 23:31:25;;;;;;;2.30;1.30;;;20.40;33.00;;;;;;10489260;28;20230;-77
2023/07/30 23:36:28;;;;;;;3.47;1.40;;;20.40;33.00;;;;;;10489149;28;20283;-77
2023/07/30 23:41:33;;;;;;;3.67;1.57;;;20.30;32.90;;;;;;10489092;28;20239;-77
2023/07/30 23:46:36;;;;;;;1.73;1.27;;;20.30;33.00;;;;;;10488898;28;20252;-77
2023/07/30 23:51:40;;;;;;;1.83;1.37;;;20.30;33.40;;;;;;10488508;28;20228;-77
2023/07/30 23:56:44;;;;;;;1.90;1.40;;;20.30;33.40;;;;;;10487915;28;20251;-77
